This is the latest recevied weather packets stored in our database for station/object KM4KMS. If no packets are shown the sender has not sent any weather packets the latest 10 day(s).
| Time | Temp. | Humidity | Pressure | Rain* | Wind** | Luminosity | Snow |
|---|---|---|---|---|---|---|---|
| 1777409968 | 23.89° C | 66% | 1012.5 hPa | 0 mm | - | 256 W/m² | - |
| 1777409663 | 24.44° C | 66% | 1012.3 hPa | 0 mm | - | 294 W/m² | - |
| 1777409360 | 24.44° C | 66% | 1012.7 hPa | 0 mm | - | 357 W/m² | - |
| 1777409055 | 25° C | 66% | 1012.7 hPa | 0 mm | - | 392 W/m² | - |
| 1777408752 | 24.44° C | 67% | 1012.9 hPa | 0 mm | - | 432 W/m² | - |
| 1777408448 | 24.44° C | 67% | 1012.6 hPa | 0 mm | - | 452 W/m² | - |
| 1777408142 | 23.89° C | 68% | 1012.9 hPa | 0 mm | - | 402 W/m² | - |
| 1777407837 | 25° C | 66% | 1013 hPa | 0 mm | - | 465 W/m² | - |
| 1777407535 | 24.44° C | 70% | 1012.9 hPa | 0 mm | - | 512 W/m² | - |
| 1777407229 | 25° C | 67% | 1013.1 hPa | 0 mm | - | 508 W/m² | - |
| 1777406924 | 25° C | 72% | 1013.4 hPa | 0 mm | - | 501 W/m² | - |
| 1777406619 | 25° C | 70% | 1013.4 hPa | 0 mm | - | 608 W/m² | - |
| 1777406315 | 23.89° C | 73% | 1013.2 hPa | 0 mm | - | 464 W/m² | - |
| 1777406014 | 24.44° C | 73% | 1013.4 hPa | 0 mm | - | 256 W/m² | - |
| 1777405711 | 23.89° C | 72% | 1013.4 hPa | 0 mm | - | 208 W/m² | - |
| 1777405408 | 24.44° C | 72% | 1013.4 hPa | 0 mm | - | 198 W/m² | - |
| 1777405104 | 23.89° C | 73% | 1013.6 hPa | 0 mm | - | 664 W/m² | - |
| 1777404798 | 24.44° C | 74% | 1013.8 hPa | 0 mm | - | 213 W/m² | - |
| 1777404495 | 24.44° C | 74% | 1013.7 hPa | 0 mm | - | 655 W/m² | - |
| 1777404191 | 23.89° C | 76% | 1013.5 hPa | 0 mm | - | 696 W/m² | - |
| 1777403886 | 23.89° C | 76% | 1013.5 hPa | 0 mm | - | 664 W/m² | - |
| 1777403576 | 23.33° C | 79% | 1013.5 hPa | 0 mm | - | 258 W/m² | - |
| 1777403276 | 22.78° C | 81% | 1013.3 hPa | 0 mm | - | 702 W/m² | - |
| 1777402976 | 22.78° C | 80% | 1013.3 hPa | 0 mm | - | 230 W/m² | - |
| 1777402671 | 23.89° C | 75% | 1013.4 hPa | 0 mm | - | 193 W/m² | - |
* Rain latest hour (hover to see other rain measurements)
** Current wind speed in m/s (hover to see current wind gust speed)